createdAt,value
2024-01-24T00:01:06.958Z,69.36
2024-01-24T00:03:49.243Z,69.32
2024-01-24T00:06:17.452Z,69.47
2024-01-24T00:08:45.770Z,69.41
2024-01-24T00:11:13.911Z,69.37
2024-01-24T00:13:41.958Z,69.53
2024-01-24T00:16:10.172Z,69.67
2024-01-24T00:18:38.429Z,69.61
2024-01-24T00:21:06.927Z,69.53
2024-01-24T00:23:35.085Z,69.62
2024-01-24T00:26:03.206Z,69.63
2024-01-24T00:28:31.335Z,69.78
2024-01-24T00:30:59.409Z,69.79
2024-01-24T00:33:30.583Z,69.73
2024-01-24T00:35:58.861Z,69.76
2024-01-24T00:38:26.983Z,69.78
2024-01-24T00:40:55.339Z,69.88
2024-01-24T00:43:24.102Z,69.86
2024-01-24T00:45:52.264Z,69.91
2024-01-24T00:48:20.511Z,69.98
2024-01-24T00:50:48.629Z,69.93
2024-01-24T00:53:21.071Z,70.04
2024-01-24T00:55:49.306Z,69.91
2024-01-24T00:58:19.040Z,70.10
2024-01-24T01:00:47.361Z,70.07
2024-01-24T01:03:16.000Z,70.09
2024-01-24T01:05:44.754Z,70.20
2024-01-24T01:08:12.965Z,70.19
2024-01-24T01:10:41.059Z,70.21
2024-01-24T01:13:09.137Z,70.24
2024-01-24T01:15:37.197Z,70.24
2024-01-24T01:18:05.868Z,70.26
2024-01-24T01:20:33.933Z,70.21
2024-01-24T01:23:03.809Z,70.23
2024-01-24T01:25:31.907Z,70.26
2024-01-24T01:28:00.142Z,70.32
2024-01-24T01:30:28.363Z,70.39
2024-01-24T01:32:56.879Z,70.47
2024-01-24T01:35:25.096Z,70.50
2024-01-24T01:37:53.174Z,70.39
2024-01-24T01:40:21.489Z,70.38
2024-01-24T01:42:49.746Z,70.51
2024-01-24T01:45:18.009Z,70.50
2024-01-24T01:47:49.187Z,70.43
2024-01-24T01:50:18.598Z,70.51
2024-01-24T01:52:47.626Z,70.47
2024-01-24T01:55:16.617Z,70.60
2024-01-24T01:57:45.654Z,70.68
2024-01-24T02:00:22.070Z,70.59
2024-01-24T02:02:51.659Z,70.72
2024-01-24T02:05:20.628Z,70.69
2024-01-24T02:07:49.006Z,70.67
2024-01-24T02:10:17.245Z,70.78
2024-01-24T02:12:45.389Z,70.79
2024-01-24T02:15:13.672Z,70.83
2024-01-24T02:17:41.869Z,70.85
2024-01-24T02:20:11.926Z,70.82
2024-01-24T02:22:39.970Z,70.83
2024-01-24T02:25:08.699Z,70.86
2024-01-24T02:27:37.086Z,70.82
2024-01-24T02:30:06.270Z,70.76
2024-01-24T02:32:34.542Z,70.92
2024-01-24T02:35:02.671Z,70.76
2024-01-24T02:37:31.533Z,70.82
2024-01-24T02:39:59.896Z,70.80
2024-01-24T02:42:28.050Z,70.73
2024-01-24T02:44:56.182Z,70.78
2024-01-24T02:47:24.399Z,70.91
2024-01-24T02:49:52.449Z,70.81
2024-01-24T02:52:20.572Z,70.74
2024-01-24T02:54:48.743Z,70.85
2024-01-24T02:57:17.058Z,70.76
2024-01-24T02:59:45.226Z,70.71
2024-01-24T03:02:13.381Z,70.75
2024-01-24T03:04:41.600Z,70.88
2024-01-24T03:07:09.940Z,70.74
2024-01-24T03:09:38.191Z,70.78
2024-01-24T03:12:06.518Z,70.79
2024-01-24T03:14:34.636Z,70.80
2024-01-24T03:17:02.739Z,70.75
2024-01-24T03:19:31.043Z,70.78
2024-01-24T03:21:59.611Z,70.71
2024-01-24T03:24:27.937Z,70.74
2024-01-24T03:26:56.038Z,70.81
2024-01-24T03:29:24.070Z,70.70
2024-01-24T03:31:52.104Z,70.80
2024-01-24T03:34:20.479Z,70.81
2024-01-24T03:36:48.826Z,70.91
2024-01-24T03:39:17.083Z,70.79
2024-01-24T03:41:45.673Z,70.82
2024-01-24T03:44:13.906Z,70.76
2024-01-24T03:46:42.130Z,70.85
2024-01-24T03:49:10.326Z,70.79
2024-01-24T03:51:38.543Z,70.78
2024-01-24T03:54:06.812Z,70.92
2024-01-24T03:56:34.874Z,70.88
2024-01-24T03:59:03.386Z,70.89
2024-01-24T04:01:31.767Z,70.98
2024-01-24T04:03:59.953Z,70.93
2024-01-24T04:06:28.400Z,71.05
2024-01-24T04:08:56.584Z,71.03
2024-01-24T04:11:24.610Z,71.26
2024-01-24T04:13:57.776Z,71.28
2024-01-24T04:16:25.871Z,71.53
2024-01-24T04:18:54.117Z,71.59
2024-01-24T04:21:22.282Z,71.71
2024-01-24T04:23:50.680Z,71.74
2024-01-24T04:26:22.495Z,72.00
2024-01-24T04:28:50.642Z,72.14
2024-01-24T04:31:18.705Z,72.25
2024-01-24T04:33:46.851Z,72.28
2024-01-24T04:36:15.216Z,72.36
2024-01-24T04:38:44.922Z,72.47
2024-01-24T04:41:13.167Z,72.40
2024-01-24T04:43:41.268Z,72.54
2024-01-24T04:46:16.198Z,72.53
2024-01-24T04:48:45.856Z,72.63
2024-01-24T04:51:14.128Z,72.69
2024-01-24T04:53:42.284Z,72.84
2024-01-24T04:56:10.479Z,72.79
2024-01-24T04:58:38.648Z,73.03
2024-01-24T05:01:06.913Z,73.22
2024-01-24T05:03:35.221Z,73.39
2024-01-24T05:06:09.914Z,73.44
2024-01-24T05:08:39.753Z,73.47
2024-01-24T05:11:07.948Z,73.81
2024-01-24T05:13:36.129Z,73.80
2024-01-24T05:16:04.642Z,73.89
2024-01-24T05:18:32.943Z,73.99
2024-01-24T05:21:03.517Z,73.93
2024-01-24T05:23:31.948Z,74.02
2024-01-24T05:26:00.033Z,74.04
2024-01-24T05:28:28.130Z,73.92
2024-01-24T05:30:56.195Z,73.98
2024-01-24T05:33:24.936Z,74.09
2024-01-24T05:35:53.475Z,74.14
2024-01-24T05:38:21.577Z,74.13
2024-01-24T05:40:49.917Z,74.10
2024-01-24T05:43:18.487Z,74.32
2024-01-24T05:45:51.198Z,74.31
2024-01-24T05:48:19.590Z,74.26
2024-01-24T05:50:47.785Z,74.27
2024-01-24T05:53:15.868Z,74.45
2024-01-24T05:55:44.049Z,74.39
2024-01-24T05:58:12.623Z,74.54
2024-01-24T06:00:40.854Z,74.41
2024-01-24T06:03:09.063Z,74.49
2024-01-24T06:05:37.397Z,74.58
2024-01-24T06:08:06.853Z,74.49
2024-01-24T06:10:35.137Z,74.54
2024-01-24T06:13:03.500Z,74.28
2024-01-24T06:15:31.678Z,74.27
2024-01-24T06:17:59.836Z,74.35
2024-01-24T06:20:28.594Z,74.26
2024-01-24T06:22:56.687Z,74.32
2024-01-24T06:25:24.790Z,74.35
2024-01-24T06:27:53.176Z,74.43
2024-01-24T06:30:23.547Z,74.64
2024-01-24T06:32:53.415Z,74.67
2024-01-24T06:35:22.667Z,74.66
2024-01-24T06:37:52.965Z,74.66
2024-01-24T06:40:21.380Z,74.91
2024-01-24T06:42:50.504Z,75.13
2024-01-24T06:45:18.893Z,75.00
2024-01-24T06:47:47.274Z,75.08
2024-01-24T06:50:15.626Z,75.16
2024-01-24T06:52:44.015Z,75.27
2024-01-24T06:55:12.972Z,75.29
2024-01-24T06:57:41.239Z,75.31
2024-01-24T07:00:11.392Z,75.23
2024-01-24T07:02:40.096Z,75.44
2024-01-24T07:05:08.501Z,75.51
2024-01-24T07:07:38.709Z,75.58
2024-01-24T07:10:12.710Z,75.56
2024-01-24T07:12:46.956Z,75.75
2024-01-24T07:15:17.659Z,75.73
2024-01-24T07:17:46.828Z,75.88
2024-01-24T07:20:17.063Z,75.98
2024-01-24T07:22:45.365Z,76.23
2024-01-24T07:25:13.496Z,76.14
2024-01-24T07:27:41.690Z,76.34
2024-01-24T07:30:10.178Z,76.39
2024-01-24T07:32:41.493Z,76.43
2024-01-24T07:35:12.959Z,76.48
2024-01-24T07:37:41.108Z,76.56
2024-01-24T07:40:19.654Z,76.50
2024-01-24T07:42:49.119Z,76.46
2024-01-24T07:45:19.788Z,76.54
2024-01-24T07:47:48.973Z,76.41
2024-01-24T07:50:17.504Z,76.50
2024-01-24T07:52:45.837Z,76.38
2024-01-24T07:55:17.538Z,76.22
2024-01-24T07:57:46.135Z,76.10
2024-01-24T08:00:17.983Z,76.12
2024-01-24T08:02:47.664Z,76.22
2024-01-24T08:05:20.850Z,76.22
2024-01-24T08:07:49.421Z,76.01
2024-01-24T08:10:19.048Z,75.90
2024-01-24T08:12:47.481Z,75.99
2024-01-24T08:15:15.994Z,75.84
2024-01-24T08:17:44.906Z,75.59
2024-01-24T08:20:13.390Z,76.96
2024-01-24T08:22:41.581Z,78.06
2024-01-24T08:25:09.866Z,77.86
2024-01-24T08:27:38.231Z,76.67
2024-01-24T08:30:07.218Z,75.67
2024-01-24T08:32:35.495Z,75.50
2024-01-24T08:35:05.130Z,75.33
2024-01-24T08:37:33.252Z,75.33
2024-01-24T08:40:01.478Z,75.31
2024-01-24T08:42:30.329Z,75.30
2024-01-24T08:44:58.466Z,75.23
2024-01-24T08:47:26.772Z,75.12
2024-01-24T08:49:57.835Z,75.08
2024-01-24T08:52:26.585Z,75.16
2024-01-24T08:54:54.844Z,75.11
2024-01-24T08:57:23.624Z,75.04
2024-01-24T08:59:53.377Z,75.24
2024-01-24T09:02:21.656Z,75.56
2024-01-24T09:04:52.936Z,75.62
2024-01-24T09:07:21.425Z,75.74
2024-01-24T09:09:52.919Z,76.01
2024-01-24T09:12:21.441Z,76.13
2024-01-24T09:14:50.174Z,76.32
2024-01-24T09:17:19.077Z,76.24
2024-01-24T09:19:49.100Z,76.37
2024-01-24T09:22:18.311Z,76.37
2024-01-24T09:24:46.751Z,76.33
2024-01-24T09:27:18.516Z,76.39
2024-01-24T09:29:46.700Z,76.46
2024-01-24T09:32:15.064Z,76.57
2024-01-24T09:34:44.424Z,76.80
2024-01-24T09:37:13.110Z,76.73
2024-01-24T09:39:41.385Z,76.61
2024-01-24T09:42:21.010Z,76.36
2024-01-24T09:44:52.357Z,76.20
2024-01-24T09:47:23.637Z,76.04
2024-01-24T09:49:52.381Z,75.94
2024-01-24T09:52:26.287Z,75.79
2024-01-24T09:55:01.098Z,75.46
2024-01-24T09:57:29.440Z,75.32
2024-01-24T09:59:58.175Z,75.20
2024-01-24T10:02:27.683Z,74.97
2024-01-24T10:04:59.101Z,74.81
2024-01-24T10:07:29.299Z,74.90
2024-01-24T10:10:07.952Z,74.64
2024-01-24T10:12:36.967Z,74.62
2024-01-24T10:15:05.547Z,74.40
2024-01-24T10:17:33.769Z,74.31
2024-01-24T10:20:02.250Z,73.94
2024-01-24T10:22:30.588Z,73.79
2024-01-24T10:24:59.769Z,73.64
2024-01-24T10:27:29.047Z,73.74
2024-01-24T10:29:58.112Z,73.70
2024-01-24T10:32:26.329Z,73.54
2024-01-24T10:34:54.798Z,73.38
2024-01-24T10:37:23.559Z,73.59
2024-01-24T10:39:54.788Z,73.61
2024-01-24T10:42:29.957Z,73.29
2024-01-24T10:45:01.810Z,73.33
2024-01-24T10:47:31.658Z,73.40
2024-01-24T10:50:05.098Z,73.45
2024-01-24T10:52:36.877Z,73.68
2024-01-24T10:55:12.385Z,73.91
2024-01-24T10:57:44.811Z,74.13
2024-01-24T11:00:17.007Z,74.38
2024-01-24T11:02:45.472Z,74.48
2024-01-24T11:05:20.683Z,74.59
2024-01-24T11:08:04.249Z,74.58
2024-01-24T11:10:37.497Z,74.29
2024-01-24T11:13:06.712Z,74.56
2024-01-24T11:15:36.285Z,74.43
2024-01-24T11:18:24.166Z,74.34
2024-01-24T11:20:55.130Z,74.14
2024-01-24T11:23:45.779Z,74.19
2024-01-24T11:26:47.384Z,73.98
2024-01-24T11:29:15.942Z,73.68
2024-01-24T11:31:44.723Z,73.59
2024-01-24T11:34:14.304Z,73.40
2024-01-24T11:36:52.278Z,73.19
2024-01-24T11:39:41.229Z,72.76
2024-01-24T11:42:25.230Z,72.01
2024-01-24T11:44:54.616Z,72.71
2024-01-24T11:47:24.044Z,72.78
2024-01-24T11:49:53.817Z,72.76
2024-01-24T11:52:22.573Z,72.99
2024-01-24T11:54:54.859Z,73.37
2024-01-24T11:57:23.359Z,73.86
2024-01-24T11:59:51.531Z,74.03
2024-01-24T12:02:19.783Z,74.10
2024-01-24T12:04:51.688Z,74.33
2024-01-24T12:07:20.815Z,74.39
2024-01-24T12:09:49.670Z,74.42
2024-01-24T12:12:19.334Z,74.39
2024-01-24T12:14:48.239Z,74.44
2024-01-24T12:17:16.942Z,74.38
2024-01-24T12:19:46.410Z,74.45
2024-01-24T12:22:16.882Z,74.33
2024-01-24T12:24:45.302Z,74.37
2024-01-24T12:27:27.966Z,74.18
2024-01-24T12:29:56.521Z,74.26
2024-01-24T12:32:25.314Z,74.30
2024-01-24T12:34:57.109Z,74.25
2024-01-24T12:37:25.436Z,74.12
2024-01-24T12:39:57.549Z,74.08
2024-01-24T12:42:25.740Z,74.01
2024-01-24T12:44:55.264Z,73.71
2024-01-24T12:47:23.910Z,73.74
2024-01-24T12:49:52.245Z,73.63
2024-01-24T12:52:20.590Z,73.63
2024-01-24T12:54:48.855Z,73.72
2024-01-24T12:57:18.619Z,73.56
2024-01-24T12:59:47.030Z,73.43
2024-01-24T13:02:15.430Z,73.10
2024-01-24T13:04:45.441Z,73.10
2024-01-24T13:07:14.314Z,73.09
2024-01-24T13:09:46.296Z,72.99
2024-01-24T13:12:22.606Z,72.92
2024-01-24T13:14:50.954Z,72.91
2024-01-24T13:17:20.853Z,72.90
2024-01-24T13:19:49.746Z,72.90
2024-01-24T13:22:18.799Z,72.81
2024-01-24T13:24:48.008Z,72.78
2024-01-24T13:27:19.941Z,72.64
2024-01-24T13:29:48.213Z,72.65
2024-01-24T13:32:16.553Z,72.50
2024-01-24T13:34:45.008Z,72.07
2024-01-24T13:37:15.313Z,71.91
2024-01-24T13:39:44.392Z,71.73
2024-01-24T13:42:12.990Z,71.46
2024-01-24T13:44:41.580Z,71.30
2024-01-24T13:47:09.965Z,71.40
2024-01-24T13:49:42.839Z,71.16
2024-01-24T13:52:11.667Z,71.08
2024-01-24T13:54:39.842Z,70.92
2024-01-24T13:57:08.444Z,71.06
2024-01-24T13:59:36.794Z,71.13
2024-01-24T14:02:05.023Z,71.23
2024-01-24T14:04:33.338Z,71.39
2024-01-24T14:07:02.509Z,71.40
2024-01-24T14:09:30.926Z,71.45
2024-01-24T14:11:59.872Z,71.51
2024-01-24T14:14:29.491Z,71.37
2024-01-24T14:17:00.591Z,71.28
2024-01-24T14:19:29.001Z,71.17
2024-01-24T14:21:57.532Z,71.14
2024-01-24T14:24:25.783Z,71.14
2024-01-24T14:26:54.409Z,71.15
2024-01-24T14:29:24.575Z,71.14
2024-01-24T14:31:52.745Z,71.09
2024-01-24T14:34:21.005Z,70.92
2024-01-24T14:36:52.541Z,70.86
2024-01-24T14:39:24.364Z,70.65
2024-01-24T14:41:52.581Z,70.32
2024-01-24T14:44:20.828Z,70.15
2024-01-24T14:46:48.943Z,69.80
2024-01-24T14:49:17.174Z,69.60
2024-01-24T14:51:45.296Z,69.55
2024-01-24T14:54:13.314Z,69.53
2024-01-24T14:56:41.362Z,69.74
2024-01-24T14:59:09.517Z,69.76
2024-01-24T15:01:37.902Z,70.15
2024-01-24T15:04:06.340Z,70.18
2024-01-24T15:06:34.703Z,70.38
2024-01-24T15:09:02.852Z,70.45
2024-01-24T15:11:31.005Z,70.51
2024-01-24T15:13:59.164Z,70.62
2024-01-24T15:16:29.387Z,70.49
2024-01-24T15:18:58.336Z,70.22
2024-01-24T15:21:27.674Z,70.26
2024-01-24T15:24:00.204Z,70.04
2024-01-24T15:26:28.763Z,69.95
2024-01-24T15:28:56.944Z,69.82
2024-01-24T15:31:25.197Z,69.93
2024-01-24T15:33:54.225Z,69.88
2024-01-24T15:36:22.550Z,69.68
2024-01-24T15:38:52.119Z,69.63
2024-01-24T15:41:20.477Z,69.58
2024-01-24T15:43:48.727Z,69.59
2024-01-24T15:46:16.909Z,69.65
2024-01-24T15:48:45.549Z,69.52
2024-01-24T15:51:17.722Z,69.57
2024-01-24T15:53:46.007Z,69.67
2024-01-24T15:56:14.360Z,69.79
2024-01-24T15:58:42.436Z,69.72
2024-01-24T16:01:10.740Z,69.61
2024-01-24T16:03:39.054Z,69.64
2024-01-24T16:06:07.756Z,69.52
2024-01-24T16:08:36.005Z,69.32
2024-01-24T16:11:04.327Z,69.29
2024-01-24T16:13:32.813Z,69.18
2024-01-24T16:16:03.589Z,69.25
2024-01-24T16:18:32.324Z,69.47
2024-01-24T16:21:05.149Z,69.27
2024-01-24T16:23:33.544Z,69.39
2024-01-24T16:26:01.920Z,69.32
2024-01-24T16:28:30.014Z,68.97
2024-01-24T16:30:58.236Z,68.83
2024-01-24T16:33:27.432Z,68.77
2024-01-24T16:35:55.604Z,68.61
2024-01-24T16:38:23.656Z,68.54
2024-01-24T16:40:52.554Z,68.48
2024-01-24T16:43:21.008Z,68.15
2024-01-24T16:45:50.864Z,68.16
2024-01-24T16:48:19.513Z,67.99
2024-01-24T16:50:48.017Z,67.93
2024-01-24T16:53:16.655Z,67.78
2024-01-24T16:55:44.760Z,67.82
2024-01-24T16:58:14.396Z,67.73
2024-01-24T17:00:42.782Z,67.90
2024-01-24T17:03:11.016Z,67.83
2024-01-24T17:05:39.188Z,67.76
2024-01-24T17:08:07.995Z,67.73
2024-01-24T17:10:36.103Z,67.80
2024-01-24T17:13:04.401Z,67.96
2024-01-24T17:15:32.603Z,67.91
2024-01-24T17:18:05.237Z,67.80
2024-01-24T17:20:33.918Z,67.73
2024-01-24T17:23:02.091Z,67.93
2024-01-24T17:25:30.672Z,67.97
2024-01-24T17:27:59.060Z,67.85
2024-01-24T17:30:27.329Z,67.75
2024-01-24T17:32:55.696Z,67.76
2024-01-24T17:35:23.761Z,67.82
2024-01-24T17:37:51.975Z,67.75
2024-01-24T17:40:20.187Z,67.94
2024-01-24T17:42:48.351Z,67.76
2024-01-24T17:45:16.693Z,67.70
2024-01-24T17:47:45.201Z,67.64
2024-01-24T17:50:13.467Z,67.78
2024-01-24T17:52:43.776Z,67.61
2024-01-24T17:55:11.940Z,67.57
2024-01-24T17:57:40.299Z,67.83
2024-01-24T18:00:09.051Z,67.87
2024-01-24T18:02:37.306Z,67.70
2024-01-24T18:05:06.965Z,67.54
2024-01-24T18:07:35.317Z,67.64
2024-01-24T18:10:03.771Z,67.64
2024-01-24T18:12:32.594Z,67.35
2024-01-24T18:15:00.668Z,67.39
2024-01-24T18:17:28.903Z,67.41
2024-01-24T18:19:57.118Z,67.40
2024-01-24T18:22:25.346Z,67.59
2024-01-24T18:24:53.522Z,67.58
2024-01-24T18:27:21.551Z,67.53
2024-01-24T18:29:53.576Z,67.51
2024-01-24T18:34:42.512Z,67.45
2024-01-24T18:37:10.944Z,67.42
2024-01-24T18:39:39.020Z,67.59
2024-01-24T18:42:08.988Z,67.62
2024-01-24T18:44:37.653Z,67.56
2024-01-24T18:47:06.992Z,67.47
2024-01-24T18:49:35.278Z,67.59
2024-01-24T18:52:03.820Z,67.75
2024-01-24T18:54:32.342Z,67.83
2024-01-24T18:57:00.475Z,68.00
2024-01-24T18:59:29.144Z,68.19
2024-01-24T19:01:57.375Z,68.18
2024-01-24T19:04:26.331Z,68.19
2024-01-24T19:06:56.499Z,68.10
2024-01-24T19:09:25.072Z,67.98
2024-01-24T19:11:55.222Z,68.02
2024-01-24T19:14:23.559Z,68.02
2024-01-24T19:16:51.839Z,67.95
2024-01-24T19:19:21.775Z,67.92
2024-01-24T19:21:50.245Z,68.01
2024-01-24T19:24:19.427Z,68.05
2024-01-24T19:26:47.505Z,67.99
2024-01-24T19:29:15.578Z,67.98
2024-01-24T19:31:43.738Z,68.12
2024-01-24T19:34:12.277Z,68.35
2024-01-24T19:36:40.878Z,68.57
2024-01-24T19:39:10.259Z,68.50
2024-01-24T19:41:39.337Z,68.60
2024-01-24T19:44:07.854Z,68.81
2024-01-24T19:46:36.073Z,68.87
2024-01-24T19:49:04.500Z,68.81
2024-01-24T19:51:33.004Z,68.88
2024-01-24T19:54:02.298Z,68.95
2024-01-24T19:56:30.633Z,68.89
2024-01-24T19:59:00.595Z,69.13
2024-01-24T20:01:29.035Z,69.33
2024-01-24T20:03:57.242Z,69.28
2024-01-24T20:06:29.756Z,69.33
2024-01-24T20:09:02.759Z,69.55
2024-01-24T20:11:31.126Z,69.46
2024-01-24T20:13:59.389Z,69.41
2024-01-24T20:16:27.623Z,69.36
2024-01-24T20:18:56.978Z,69.40
2024-01-24T20:21:25.578Z,69.29
2024-01-24T20:23:53.832Z,69.14
2024-01-24T20:26:23.601Z,69.15
2024-01-24T20:28:52.103Z,69.28
2024-01-24T20:31:20.262Z,69.37
2024-01-24T20:33:48.604Z,69.52
2024-01-24T20:36:16.892Z,69.38
2024-01-24T20:38:45.992Z,69.47
2024-01-24T20:41:14.163Z,69.45
2024-01-24T20:43:43.074Z,69.35
2024-01-24T20:46:12.379Z,69.42
2024-01-24T20:48:41.759Z,69.33
2024-01-24T20:51:10.012Z,69.33
2024-01-24T20:53:38.183Z,69.35
2024-01-24T20:56:06.676Z,69.19
2024-01-24T20:58:35.383Z,69.15
2024-01-24T21:01:04.615Z,69.11
2024-01-24T21:03:34.363Z,68.98
2024-01-24T21:06:03.057Z,68.95
2024-01-24T21:08:31.538Z,69.13
2024-01-24T21:11:03.532Z,68.99
2024-01-24T21:13:32.861Z,68.86
2024-01-24T21:16:02.419Z,68.99
2024-01-24T21:18:30.745Z,68.83
2024-01-24T21:20:59.194Z,68.72
2024-01-24T21:23:27.548Z,68.68
2024-01-24T21:25:55.787Z,68.69
2024-01-24T21:28:23.963Z,68.67
2024-01-24T21:30:52.133Z,68.81
2024-01-24T21:33:20.303Z,68.76
2024-01-24T21:35:48.499Z,68.64
2024-01-24T21:38:18.461Z,68.60
2024-01-24T21:40:46.753Z,68.68
2024-01-24T21:43:15.078Z,68.67
2024-01-24T21:45:43.258Z,68.82
2024-01-24T21:48:11.911Z,68.77
2024-01-24T21:50:40.059Z,68.62
2024-01-24T21:53:08.734Z,68.74
2024-01-24T21:55:36.853Z,68.85
2024-01-24T21:58:05.670Z,68.98
2024-01-24T22:00:33.998Z,69.17
2024-01-24T22:03:02.287Z,69.86
2024-01-24T22:05:30.546Z,70.13
2024-01-24T22:07:58.834Z,70.23
2024-01-24T22:10:27.095Z,70.37
2024-01-24T22:12:56.174Z,70.33
2024-01-24T22:15:24.583Z,70.58
2024-01-24T22:17:53.230Z,70.53
2024-01-24T22:20:21.459Z,70.51
2024-01-24T22:22:49.537Z,70.49
2024-01-24T22:25:18.482Z,70.79
2024-01-24T22:27:46.980Z,70.81
2024-01-24T22:30:17.708Z,70.93
2024-01-24T22:32:45.899Z,70.73
2024-01-24T22:35:14.576Z,70.69
2024-01-24T22:37:43.048Z,70.76
2024-01-24T22:40:11.439Z,70.67
2024-01-24T22:42:39.694Z,70.58
2024-01-24T22:45:08.739Z,70.68
2024-01-24T22:47:37.038Z,70.76
2024-01-24T22:50:06.091Z,71.09
2024-01-24T22:52:34.392Z,70.91
2024-01-24T22:55:03.194Z,70.69
2024-01-24T22:57:31.367Z,70.66
2024-01-24T23:00:00.257Z,70.61
2024-01-24T23:02:28.972Z,70.45
2024-01-24T23:04:57.215Z,70.31
2024-01-24T23:07:25.531Z,70.00
2024-01-24T23:09:53.897Z,69.69
2024-01-24T23:12:22.110Z,69.68
2024-01-24T23:14:50.207Z,69.55
2024-01-24T23:17:19.489Z,69.77
2024-01-24T23:19:47.796Z,69.98
2024-01-24T23:22:16.118Z,70.30
2024-01-24T23:24:44.293Z,70.44
2024-01-24T23:27:12.503Z,70.18
2024-01-24T23:29:40.652Z,69.89
2024-01-24T23:32:09.282Z,70.01
2024-01-24T23:34:37.957Z,69.99
2024-01-24T23:37:06.414Z,69.98
2024-01-24T23:39:34.624Z,69.79
2024-01-24T23:42:02.770Z,69.76
2024-01-24T23:44:30.998Z,69.60
2024-01-24T23:46:59.079Z,69.50
2024-01-24T23:49:27.423Z,69.48
2024-01-24T23:51:55.918Z,69.46
2024-01-24T23:54:24.302Z,69.29
2024-01-24T23:56:52.305Z,69.32
2024-01-24T23:59:20.379Z,69.40
